createdAt,value
2019-02-09T00:00:37.076Z,4.70
2019-02-09T00:03:09.553Z,4.70
2019-02-09T00:05:40.737Z,4.70
2019-02-09T00:08:12.585Z,4.70
2019-02-09T00:10:44.413Z,4.70
2019-02-09T00:13:16.115Z,4.70
2019-02-09T00:15:47.493Z,4.70
2019-02-09T00:18:19.104Z,4.70
2019-02-09T00:20:50.318Z,4.70
2019-02-09T00:23:22.544Z,4.70
2019-02-09T00:25:54.434Z,4.80
2019-02-09T00:28:25.759Z,4.80
2019-02-09T00:30:57.345Z,4.80
2019-02-09T00:33:28.510Z,4.80
2019-02-09T00:35:59.701Z,4.70
2019-02-09T00:38:31.285Z,4.80
2019-02-09T00:41:03.262Z,4.70
2019-02-09T00:43:34.429Z,4.70
2019-02-09T00:46:06.146Z,4.80
2019-02-09T00:48:37.698Z,4.80
2019-02-09T00:51:09.253Z,4.80
2019-02-09T00:53:40.457Z,4.80
2019-02-09T00:56:11.735Z,4.80
2019-02-09T00:58:42.936Z,4.90
2019-02-09T01:01:14.206Z,4.90
2019-02-09T01:03:45.453Z,4.80
2019-02-09T01:06:17.740Z,4.80
2019-02-09T01:08:48.958Z,4.80
2019-02-09T01:11:20.189Z,4.80
2019-02-09T01:13:51.626Z,4.80
2019-02-09T01:16:23.155Z,4.80
2019-02-09T01:18:54.243Z,4.80
2019-02-09T01:21:25.434Z,4.80
2019-02-09T01:23:56.697Z,4.80
2019-02-09T01:26:28.222Z,4.80
2019-02-09T01:29:00.025Z,4.70
2019-02-09T01:31:31.294Z,4.70
2019-02-09T01:34:02.659Z,4.70
2019-02-09T01:36:34.025Z,4.60
2019-02-09T01:39:08.184Z,4.60
2019-02-09T01:41:39.646Z,4.50
2019-02-09T01:44:10.910Z,4.50
2019-02-09T01:46:42.095Z,4.50
2019-02-09T01:49:13.525Z,4.50
2019-02-09T01:51:44.899Z,4.40
2019-02-09T01:54:16.365Z,4.40
2019-02-09T01:56:47.753Z,4.40
2019-02-09T01:59:19.340Z,4.40
2019-02-09T02:01:50.890Z,4.30
2019-02-09T02:04:22.038Z,4.30
2019-02-09T02:06:53.572Z,4.30
2019-02-09T02:09:24.795Z,4.30
2019-02-09T02:11:56.197Z,4.40
2019-02-09T02:14:27.350Z,4.40
2019-02-09T02:16:58.631Z,4.40
2019-02-09T02:19:29.870Z,4.40
2019-02-09T02:22:01.139Z,4.50
2019-02-09T02:24:32.702Z,4.50
2019-02-09T02:27:04.210Z,4.50
2019-02-09T02:29:36.870Z,4.50
2019-02-09T02:32:08.511Z,4.50
2019-02-09T02:34:39.631Z,4.50
2019-02-09T02:37:11.054Z,4.60
2019-02-09T02:39:42.565Z,4.60
2019-02-09T02:42:13.815Z,4.70
2019-02-09T02:44:44.977Z,4.70
2019-02-09T02:47:16.306Z,4.70
2019-02-09T02:49:47.565Z,4.70
2019-02-09T02:52:19.062Z,4.70
2019-02-09T02:54:50.541Z,4.70
2019-02-09T02:57:21.839Z,4.80
2019-02-09T02:59:53.062Z,4.80
2019-02-09T03:02:24.612Z,4.80
2019-02-09T03:04:55.800Z,4.80
2019-02-09T03:07:27.624Z,4.90
2019-02-09T03:09:58.983Z,4.90
2019-02-09T03:12:30.533Z,4.90
2019-02-09T03:15:01.782Z,5.00
2019-02-09T03:17:34.079Z,4.90
2019-02-09T03:20:06.656Z,4.90
2019-02-09T03:22:37.799Z,4.90
2019-02-09T03:25:12.818Z,4.90
2019-02-09T03:27:44.148Z,4.90
2019-02-09T03:30:16.872Z,4.80
2019-02-09T03:32:48.149Z,4.90
2019-02-09T03:35:19.763Z,4.80
2019-02-09T03:37:51.019Z,4.80
2019-02-09T03:40:23.931Z,4.70
2019-02-09T03:42:55.305Z,4.70
2019-02-09T03:45:31.096Z,4.70
2019-02-09T03:48:03.537Z,4.70
2019-02-09T03:50:34.879Z,4.70
2019-02-09T03:53:06.347Z,4.60
2019-02-09T03:55:37.860Z,4.60
2019-02-09T03:58:09.567Z,4.60
2019-02-09T04:00:40.813Z,4.60
2019-02-09T04:03:12.450Z,4.60
2019-02-09T04:05:43.917Z,4.60
2019-02-09T04:08:15.398Z,4.60
2019-02-09T04:10:46.630Z,4.60
2019-02-09T04:13:17.881Z,4.50
2019-02-09T04:15:49.128Z,4.50
2019-02-09T04:18:20.384Z,4.50
2019-02-09T04:20:52.417Z,4.50
2019-02-09T04:23:23.766Z,4.50
2019-02-09T04:25:55.026Z,4.50
2019-02-09T04:28:26.279Z,4.50
2019-02-09T04:31:05.455Z,4.40
2019-02-09T04:33:30.343Z,4.50
2019-02-09T04:36:01.760Z,4.50
2019-02-09T04:38:32.799Z,4.50
2019-02-09T04:41:03.974Z,4.50
2019-02-09T04:43:35.273Z,4.50
2019-02-09T04:46:06.640Z,4.50
2019-02-09T04:48:37.685Z,4.60
2019-02-09T04:51:09.502Z,4.50
2019-02-09T04:53:40.682Z,4.60
2019-02-09T04:56:11.951Z,4.80
2019-02-09T04:58:43.346Z,4.90
2019-02-09T05:01:14.433Z,5.00
2019-02-09T05:03:45.698Z,5.00
2019-02-09T05:06:16.881Z,4.90
2019-02-09T05:08:48.144Z,4.80
2019-02-09T05:11:19.326Z,4.80
2019-02-09T05:13:50.993Z,4.70
2019-02-09T05:16:22.272Z,4.70
2019-02-09T05:18:53.544Z,4.60
2019-02-09T05:21:24.985Z,4.60
2019-02-09T05:23:56.219Z,4.60
2019-02-09T05:26:27.742Z,4.60
2019-02-09T05:28:58.967Z,4.50
2019-02-09T05:31:30.408Z,4.60
2019-02-09T05:34:01.606Z,4.70
2019-02-09T05:36:32.768Z,4.80
2019-02-09T05:39:05.610Z,4.80
2019-02-09T05:41:36.998Z,4.90
2019-02-09T05:44:08.259Z,5.00
2019-02-09T05:46:39.381Z,5.10
2019-02-09T05:49:10.901Z,5.10
2019-02-09T05:51:42.450Z,5.10
2019-02-09T05:54:13.569Z,5.10
2019-02-09T05:56:44.894Z,5.10
2019-02-09T05:59:15.946Z,5.10
2019-02-09T06:01:47.753Z,5.00
2019-02-09T06:04:19.294Z,5.00
2019-02-09T06:06:52.279Z,5.00
2019-02-09T06:09:23.830Z,5.00
2019-02-09T06:11:55.053Z,4.90
2019-02-09T06:14:26.898Z,4.90
2019-02-09T06:16:58.055Z,4.90
2019-02-09T06:19:29.241Z,4.90
2019-02-09T06:22:00.606Z,4.90
2019-02-09T06:24:31.872Z,4.80
2019-02-09T06:27:03.058Z,4.80
2019-02-09T06:29:34.614Z,4.80
2019-02-09T06:32:06.136Z,4.70
2019-02-09T06:34:37.717Z,4.70
2019-02-09T06:37:08.928Z,4.70
2019-02-09T06:39:40.122Z,4.70
2019-02-09T06:42:11.202Z,4.70
2019-02-09T06:44:42.314Z,4.60
2019-02-09T06:47:13.495Z,4.60
2019-02-09T06:49:44.623Z,4.60
2019-02-09T06:52:15.881Z,4.60
2019-02-09T06:54:47.130Z,4.60
2019-02-09T06:57:19.947Z,4.60
2019-02-09T06:59:51.556Z,4.60
2019-02-09T07:02:22.711Z,4.60
2019-02-09T07:04:55.015Z,4.50
2019-02-09T07:07:26.202Z,4.50
2019-02-09T07:09:57.491Z,4.60
2019-02-09T07:12:28.649Z,4.50
2019-02-09T07:14:59.839Z,4.60
2019-02-09T07:17:30.867Z,4.50
2019-02-09T07:20:06.401Z,4.60
2019-02-09T07:22:37.643Z,4.60
2019-02-09T07:25:12.027Z,4.60
2019-02-09T07:27:43.414Z,4.70
2019-02-09T07:30:19.074Z,4.70
2019-02-09T07:32:51.480Z,4.80
2019-02-09T07:35:22.957Z,4.90
2019-02-09T07:37:54.390Z,4.90
2019-02-09T07:40:25.886Z,5.00
2019-02-09T07:42:58.293Z,5.00
2019-02-09T07:45:29.696Z,5.00
2019-02-09T07:48:01.812Z,5.00
2019-02-09T07:50:33.075Z,5.10
2019-02-09T07:53:04.579Z,5.10
2019-02-09T07:55:36.203Z,5.10
2019-02-09T07:58:07.889Z,5.10
2019-02-09T08:00:39.389Z,5.10
2019-02-09T08:03:10.758Z,5.20
2019-02-09T08:05:42.035Z,5.20
2019-02-09T08:08:13.340Z,5.20
2019-02-09T08:10:44.607Z,5.30
2019-02-09T08:13:16.255Z,5.40
2019-02-09T08:15:48.628Z,5.40
2019-02-09T08:18:20.178Z,5.50
2019-02-09T08:20:51.838Z,5.60
2019-02-09T08:23:23.034Z,5.70
2019-02-09T08:25:54.298Z,5.70
2019-02-09T08:28:26.286Z,5.80
2019-02-09T08:30:57.846Z,5.80
2019-02-09T08:33:29.072Z,5.90
2019-02-09T08:36:00.625Z,5.90
2019-02-09T08:38:32.189Z,6.00
2019-02-09T08:41:03.718Z,6.00
2019-02-09T08:43:35.238Z,6.10
2019-02-09T08:46:06.647Z,6.20
2019-02-09T08:48:37.894Z,6.20
2019-02-09T08:51:12.809Z,6.20
2019-02-09T08:53:44.327Z,6.30
2019-02-09T08:56:15.612Z,6.30
2019-02-09T08:58:47.195Z,6.30
2019-02-09T09:01:18.480Z,6.30
2019-02-09T09:03:49.723Z,6.30
2019-02-09T09:06:20.976Z,6.30
2019-02-09T09:08:52.068Z,6.30
2019-02-09T09:11:23.699Z,6.30
2019-02-09T09:13:54.775Z,6.30
2019-02-09T09:16:26.058Z,6.40
2019-02-09T09:18:57.308Z,6.40
2019-02-09T09:21:28.594Z,6.40
2019-02-09T09:23:59.754Z,6.40
2019-02-09T09:26:31.279Z,6.40
2019-02-09T09:29:02.455Z,6.40
2019-02-09T09:31:33.726Z,6.40
2019-02-09T09:34:05.084Z,6.50
2019-02-09T09:36:36.299Z,6.50
2019-02-09T09:39:10.013Z,6.50
2019-02-09T09:41:41.713Z,6.50
2019-02-09T09:44:12.951Z,6.60
2019-02-09T09:46:44.226Z,6.60
2019-02-09T09:49:15.369Z,6.60
2019-02-09T09:51:46.688Z,6.70
2019-02-09T09:54:17.935Z,6.80
2019-02-09T09:56:49.231Z,6.80
2019-02-09T09:59:20.466Z,6.80
2019-02-09T10:01:51.763Z,6.90
2019-02-09T10:04:22.917Z,6.90
2019-02-09T10:06:54.271Z,7.00
2019-02-09T10:09:25.722Z,7.10
2019-02-09T10:11:56.941Z,7.20
2019-02-09T10:14:28.618Z,7.20
2019-02-09T10:17:00.173Z,7.30
2019-02-09T10:19:31.259Z,7.40
2019-02-09T10:22:02.473Z,7.50
2019-02-09T10:24:34.014Z,7.60
2019-02-09T10:27:05.326Z,7.60
2019-02-09T10:29:36.643Z,7.70
2019-02-09T10:32:08.258Z,7.70
2019-02-09T10:34:39.511Z,7.90
2019-02-09T10:37:11.154Z,7.80
2019-02-09T10:39:42.922Z,7.60
2019-02-09T10:42:14.222Z,7.40
2019-02-09T10:44:45.386Z,7.40
2019-02-09T10:47:16.683Z,7.40
2019-02-09T10:49:47.983Z,7.50
2019-02-09T10:52:19.272Z,7.50
2019-02-09T10:54:50.530Z,7.50
2019-02-09T10:57:22.863Z,7.50
2019-02-09T10:59:54.309Z,7.50
2019-02-09T11:02:25.557Z,7.50
2019-02-09T11:04:56.814Z,7.50
2019-02-09T11:07:28.153Z,7.50
2019-02-09T11:09:59.384Z,7.50
2019-02-09T11:12:30.953Z,7.70
2019-02-09T11:15:02.110Z,7.80
2019-02-09T11:17:33.462Z,7.70
2019-02-09T11:20:05.976Z,7.70
2019-02-09T11:22:37.683Z,7.50
2019-02-09T11:25:10.259Z,7.40
2019-02-09T11:27:42.351Z,7.30
2019-02-09T11:30:20.227Z,7.30
2019-02-09T11:33:00.508Z,7.20
2019-02-09T11:35:24.962Z,7.10
2019-02-09T11:37:56.252Z,6.90
2019-02-09T11:40:27.845Z,7.00
2019-02-09T11:42:59.402Z,7.10
2019-02-09T11:45:31.672Z,7.20
2019-02-09T11:48:03.184Z,7.20
2019-02-09T11:50:36.812Z,7.30
2019-02-09T11:53:08.109Z,7.40
2019-02-09T11:55:39.371Z,7.50
2019-02-09T11:58:11.949Z,7.50
2019-02-09T12:00:50.943Z,7.70
2019-02-09T12:03:22.526Z,7.90
2019-02-09T12:05:54.187Z,8.00
2019-02-09T12:08:25.401Z,8.20
2019-02-09T12:10:56.615Z,8.60
2019-02-09T12:13:27.861Z,8.80
2019-02-09T12:15:59.169Z,8.90
2019-02-09T12:18:30.344Z,9.10
2019-02-09T12:21:01.879Z,9.10
2019-02-09T12:23:33.041Z,9.40
2019-02-09T12:26:04.278Z,9.40
2019-02-09T12:28:35.658Z,9.50
2019-02-09T12:31:07.039Z,9.60
2019-02-09T12:33:38.294Z,9.60
2019-02-09T12:36:09.618Z,9.80
2019-02-09T12:38:40.903Z,9.60
2019-02-09T12:41:12.170Z,8.90
2019-02-09T12:43:43.327Z,8.60
2019-02-09T12:46:14.623Z,8.60
2019-02-09T12:48:45.866Z,8.70
2019-02-09T12:51:17.165Z,9.10
2019-02-09T12:53:48.359Z,9.50
2019-02-09T12:56:20.012Z,9.80
2019-02-09T12:58:51.258Z,10.00
2019-02-09T13:01:22.577Z,10.00
2019-02-09T13:03:53.806Z,10.00
2019-02-09T13:06:25.401Z,9.90
2019-02-09T13:08:56.570Z,9.90
2019-02-09T13:11:27.795Z,9.70
2019-02-09T13:13:58.927Z,10.00
2019-02-09T13:16:30.492Z,9.70
2019-02-09T13:19:01.784Z,9.50
2019-02-09T13:21:33.112Z,9.50
2019-02-09T13:24:04.694Z,9.50
2019-02-09T13:26:36.124Z,9.50
2019-02-09T13:29:07.734Z,9.40
2019-02-09T13:31:39.486Z,9.20
2019-02-09T13:34:10.782Z,9.00
2019-02-09T13:36:42.190Z,8.70
2019-02-09T13:39:13.766Z,8.40
2019-02-09T13:41:45.598Z,8.30
2019-02-09T13:44:16.937Z,8.10
2019-02-09T13:46:48.178Z,8.00
2019-02-09T13:49:19.747Z,7.90
2019-02-09T13:51:51.118Z,7.80
2019-02-09T13:54:22.278Z,7.90
2019-02-09T13:56:53.505Z,8.00
2019-02-09T13:59:25.157Z,8.00
2019-02-09T14:01:56.394Z,8.10
2019-02-09T14:04:28.489Z,8.10
2019-02-09T14:06:59.738Z,8.00
2019-02-09T14:09:31.894Z,8.00
2019-02-09T14:12:03.242Z,8.20
2019-02-09T14:14:34.834Z,8.40
2019-02-09T14:17:06.376Z,8.50
2019-02-09T14:19:37.961Z,8.60
2019-02-09T14:22:09.515Z,8.60
2019-02-09T14:24:40.737Z,8.60
2019-02-09T14:27:12.318Z,8.50
2019-02-09T14:29:43.875Z,8.40
2019-02-09T14:32:15.132Z,8.40
2019-02-09T14:34:46.431Z,8.30
2019-02-09T14:37:17.692Z,8.30
2019-02-09T14:39:49.393Z,8.30
2019-02-09T14:42:20.565Z,8.30
2019-02-09T14:44:51.790Z,8.30
2019-02-09T14:47:22.879Z,8.20
2019-02-09T14:49:54.127Z,8.10
2019-02-09T14:52:26.400Z,8.10
2019-02-09T14:54:57.611Z,8.00
2019-02-09T14:57:28.777Z,7.90
2019-02-09T14:59:59.921Z,7.80
2019-02-09T15:02:31.163Z,7.70
2019-02-09T15:05:02.355Z,7.70
2019-02-09T15:07:33.985Z,7.60
2019-02-09T15:10:06.930Z,7.60
2019-02-09T15:12:37.938Z,7.60
2019-02-09T15:15:15.643Z,7.50
2019-02-09T15:17:46.805Z,7.50
2019-02-09T15:20:21.608Z,7.40
2019-02-09T15:22:52.859Z,7.30
2019-02-09T15:25:24.271Z,7.20
2019-02-09T15:27:55.467Z,7.20
2019-02-09T15:30:29.126Z,7.20
2019-02-09T15:33:00.294Z,7.20
2019-02-09T15:35:31.506Z,7.10
2019-02-09T15:38:02.754Z,7.00
2019-02-09T15:40:34.035Z,7.00
2019-02-09T15:43:05.482Z,6.90
2019-02-09T15:45:36.817Z,6.90
2019-02-09T15:48:08.199Z,6.80
2019-02-09T15:50:39.493Z,6.80
2019-02-09T15:53:11.345Z,6.80
2019-02-09T15:55:42.559Z,6.70
2019-02-09T15:58:14.105Z,6.70
2019-02-09T16:00:45.390Z,6.70
2019-02-09T16:03:16.944Z,6.70
2019-02-09T16:05:48.533Z,6.70
2019-02-09T16:08:19.708Z,6.70
2019-02-09T16:10:50.939Z,6.60
2019-02-09T16:13:22.142Z,6.60
2019-02-09T16:15:53.431Z,6.60
2019-02-09T16:18:24.603Z,6.50
2019-02-09T16:20:56.382Z,6.50
2019-02-09T16:23:27.544Z,6.50
2019-02-09T16:25:58.806Z,6.50
2019-02-09T16:28:30.123Z,6.50
2019-02-09T16:31:02.377Z,6.60
2019-02-09T16:33:33.541Z,6.60
2019-02-09T16:36:05.413Z,6.60
2019-02-09T16:38:36.650Z,6.60
2019-02-09T16:41:08.001Z,6.70
2019-02-09T16:43:39.225Z,6.60
2019-02-09T16:46:11.229Z,6.70
2019-02-09T16:48:42.563Z,6.70
2019-02-09T16:51:13.859Z,6.70
2019-02-09T16:53:45.113Z,6.80
2019-02-09T16:56:16.607Z,6.90
2019-02-09T16:58:47.799Z,6.90
2019-02-09T17:01:19.021Z,6.80
2019-02-09T17:03:50.259Z,6.80
2019-02-09T17:06:23.132Z,6.90
2019-02-09T17:08:54.478Z,6.90
2019-02-09T17:11:26.198Z,6.90
2019-02-09T17:13:57.446Z,6.90
2019-02-09T17:16:28.895Z,6.90
2019-02-09T17:19:00.147Z,6.80
2019-02-09T17:21:32.617Z,6.80
2019-02-09T17:24:03.862Z,6.80
2019-02-09T17:26:35.482Z,6.80
2019-02-09T17:29:06.837Z,6.80
2019-02-09T17:31:38.132Z,6.80
2019-02-09T17:34:09.358Z,6.80
2019-02-09T17:36:42.098Z,6.80
2019-02-09T17:39:13.558Z,6.80
2019-02-09T17:41:44.874Z,6.70
2019-02-09T17:44:16.110Z,6.70
2019-02-09T17:46:47.372Z,6.80
2019-02-09T17:49:18.539Z,6.80
2019-02-09T17:51:49.760Z,6.80
2019-02-09T17:54:21.331Z,6.80
2019-02-09T17:56:52.987Z,6.80
2019-02-09T17:59:24.168Z,6.80
2019-02-09T18:01:55.732Z,6.80
2019-02-09T18:04:26.963Z,6.70
2019-02-09T18:06:58.281Z,6.70
2019-02-09T18:09:29.442Z,6.80
2019-02-09T18:12:01.042Z,6.70
2019-02-09T18:14:32.618Z,6.70
2019-02-09T18:17:04.457Z,6.80
2019-02-09T18:19:35.935Z,6.80
2019-02-09T18:22:07.244Z,6.70
2019-02-09T18:24:39.564Z,6.80
2019-02-09T18:27:11.126Z,6.80
2019-02-09T18:29:42.552Z,6.80
2019-02-09T18:32:13.855Z,6.90
2019-02-09T18:34:45.085Z,6.90
2019-02-09T18:37:16.421Z,6.90
2019-02-09T18:39:47.427Z,6.90
2019-02-09T18:42:18.667Z,6.90
2019-02-09T18:44:50.167Z,6.90
2019-02-09T18:47:21.682Z,6.90
2019-02-09T18:49:52.939Z,6.90
2019-02-09T18:52:24.683Z,6.90
2019-02-09T18:54:55.926Z,6.90
2019-02-09T18:57:27.220Z,6.90
2019-02-09T18:59:58.305Z,6.90
2019-02-09T19:02:29.698Z,6.90
2019-02-09T19:05:04.358Z,6.90
2019-02-09T19:07:35.837Z,6.90
2019-02-09T19:10:10.971Z,6.90
2019-02-09T19:12:42.578Z,6.90
2019-02-09T19:15:14.763Z,6.80
2019-02-09T19:17:46.106Z,6.80
2019-02-09T19:20:21.404Z,6.80
2019-02-09T19:22:53.246Z,6.80
2019-02-09T19:25:24.921Z,6.80
2019-02-09T19:27:56.220Z,6.70
2019-02-09T19:30:27.522Z,6.70
2019-02-09T19:32:58.922Z,6.80
2019-02-09T19:35:30.166Z,6.80
2019-02-09T19:38:01.399Z,6.70
2019-02-09T19:40:32.817Z,6.70
2019-02-09T19:43:04.738Z,6.80
2019-02-09T19:45:36.010Z,6.80
2019-02-09T19:48:07.651Z,6.70
2019-02-09T19:50:39.206Z,6.80
2019-02-09T19:53:10.522Z,6.80
2019-02-09T19:55:41.766Z,6.80
2019-02-09T19:58:13.056Z,6.80
2019-02-09T20:00:45.470Z,6.70
2019-02-09T20:03:17.758Z,6.70
2019-02-09T20:05:49.958Z,6.70
2019-02-09T20:08:21.283Z,6.70
2019-02-09T20:10:52.389Z,6.80
2019-02-09T20:13:23.698Z,6.80
2019-02-09T20:15:54.932Z,6.80
2019-02-09T20:18:26.474Z,6.80
2019-02-09T20:20:57.641Z,6.70
2019-02-09T20:23:28.893Z,6.70
2019-02-09T20:26:00.126Z,6.70
2019-02-09T20:28:31.426Z,6.70
2019-02-09T20:31:02.706Z,6.80
2019-02-09T20:33:33.996Z,6.70
2019-02-09T20:36:05.157Z,6.70
2019-02-09T20:38:36.498Z,6.70
2019-02-09T20:41:09.771Z,6.70
2019-02-09T20:43:40.880Z,6.70
2019-02-09T20:46:12.472Z,6.60
2019-02-09T20:48:43.968Z,6.60
2019-02-09T20:51:15.205Z,6.50
2019-02-09T20:53:46.676Z,6.50
2019-02-09T20:56:17.759Z,6.50
2019-02-09T20:58:49.049Z,6.50
2019-02-09T21:01:20.223Z,6.60
2019-02-09T21:03:51.443Z,6.60
2019-02-09T21:06:22.940Z,6.60
2019-02-09T21:08:54.269Z,6.60
2019-02-09T21:11:25.492Z,6.60
2019-02-09T21:13:56.701Z,6.60
2019-02-09T21:16:27.870Z,6.60
2019-02-09T21:18:59.085Z,6.60
2019-02-09T21:21:30.314Z,6.50
2019-02-09T21:24:01.636Z,6.50
2019-02-09T21:26:33.039Z,6.50
2019-02-09T21:29:04.730Z,6.40
2019-02-09T21:31:36.358Z,6.40
2019-02-09T21:34:07.918Z,6.40
2019-02-09T21:36:39.074Z,6.40
2019-02-09T21:39:11.174Z,6.30
2019-02-09T21:41:42.277Z,6.30
2019-02-09T21:44:13.564Z,6.20
2019-02-09T21:46:44.671Z,6.20
2019-02-09T21:49:15.977Z,6.20
2019-02-09T21:51:47.166Z,6.20
2019-02-09T21:54:18.465Z,6.20
2019-02-09T21:56:50.026Z,6.20
2019-02-09T21:59:21.244Z,6.20
2019-02-09T22:01:52.411Z,6.20
2019-02-09T22:04:23.549Z,6.20
2019-02-09T22:06:55.151Z,6.20
2019-02-09T22:09:26.847Z,6.20
2019-02-09T22:11:58.168Z,6.20
2019-02-09T22:14:29.327Z,6.20
2019-02-09T22:17:00.457Z,6.20
2019-02-09T22:19:31.625Z,6.30
2019-02-09T22:22:03.171Z,6.20
2019-02-09T22:24:34.884Z,6.30
2019-02-09T22:27:06.560Z,6.20
2019-02-09T22:29:37.842Z,6.20
2019-02-09T22:32:09.139Z,6.20
2019-02-09T22:34:40.301Z,6.30
2019-02-09T22:37:11.642Z,6.30
2019-02-09T22:39:42.822Z,6.30
2019-02-09T22:42:14.336Z,6.30
2019-02-09T22:44:45.918Z,6.30
2019-02-09T22:47:17.427Z,6.40
2019-02-09T22:49:48.872Z,6.30
2019-02-09T22:52:20.150Z,6.30
2019-02-09T22:54:51.926Z,6.40
2019-02-09T22:57:23.042Z,6.30
2019-02-09T22:59:54.216Z,6.30
2019-02-09T23:02:25.490Z,6.30
2019-02-09T23:05:11.443Z,6.20
2019-02-09T23:07:43.322Z,6.20
2019-02-09T23:10:15.619Z,6.30
2019-02-09T23:12:48.592Z,6.30
2019-02-09T23:15:21.499Z,6.30
2019-02-09T23:17:52.711Z,6.30
2019-02-09T23:20:24.111Z,6.30
2019-02-09T23:22:59.524Z,6.30
2019-02-09T23:25:33.576Z,6.30
2019-02-09T23:28:04.973Z,6.30
2019-02-09T23:30:36.309Z,6.20
2019-02-09T23:33:07.656Z,6.30
2019-02-09T23:35:39.209Z,6.30
2019-02-09T23:38:10.484Z,6.30
2019-02-09T23:40:42.094Z,6.20
2019-02-09T23:43:13.178Z,6.20
2019-02-09T23:45:44.860Z,6.10
2019-02-09T23:48:16.243Z,6.00
2019-02-09T23:50:47.446Z,6.00
2019-02-09T23:53:18.470Z,6.00
2019-02-09T23:55:49.981Z,6.00
2019-02-09T23:58:21.526Z,6.00
